Time;durP1;ratioP1;P1;durP2;ratioP2;P2;SDS_P1;SDS_P2;PMS_P1;PMS_P2;Temp;Humidity;BMP_temperature;BMP_pressure;BME280_temperature;BME280_humidity;BME280_pressure;Samples;Min_cycle;Max_cycle;Signal;HPM_P1;HPM_P2
2022/03/31 00:01:41;;;;;;;48.55;23.90;;;;;;;6.73;80.75;97684.78;4966266;28;20027;-51
2022/03/31 00:04:06;;;;;;;53.35;24.70;;;;;;;6.68;79.98;97680.22;4970683;28;20022;-51
2022/03/31 00:06:32;;;;;;;53.20;22.42;;;;;;;6.63;79.09;97682.84;4962127;28;20082;-53
2022/03/31 00:08:57;;;;;;;55.58;24.13;;;;;;;6.57;79.00;97675.88;4968960;28;20035;-51
2022/03/31 00:11:23;;;;;;;49.10;23.42;;;;;;;6.56;79.51;97678.78;4969944;28;20062;-50
2022/03/31 00:13:49;;;;;;;49.10;23.75;;;;;;;6.53;78.92;97673.97;4966729;28;20069;-51
2022/03/31 00:16:14;;;;;;;51.60;23.00;;;;;;;6.54;79.18;97675.56;4960166;28;20039;-50
2022/03/31 00:18:40;;;;;;;62.42;24.38;;;;;;;6.50;79.46;97669.97;4966059;28;20031;-52
2022/03/31 00:21:05;;;;;;;48.35;23.83;;;;;;;6.48;80.74;97667.53;4961342;28;20061;-50
2022/03/31 00:23:31;;;;;;;55.75;23.77;;;;;;;6.48;79.74;97667.53;4957795;28;20030;-51
2022/03/31 00:25:57;;;;;;;51.38;24.63;;;;;;;6.42;80.02;97657.94;4966216;28;20027;-50
2022/03/31 00:28:23;;;;;;;57.10;24.27;;;;;;;6.42;79.75;97663.25;4963001;28;20075;-51
2022/03/31 00:30:49;;;;;;;57.72;25.55;;;;;;;6.43;80.48;97661.38;4969642;28;20035;-50
2022/03/31 00:33:15;;;;;;;55.70;24.40;;;;;;;6.44;80.91;97652.34;4963813;28;20038;-50
2022/03/31 00:35:40;;;;;;;48.15;23.02;;;;;;;6.45;80.57;97659.28;4964949;28;20054;-53
2022/03/31 00:38:06;;;;;;;49.00;23.48;;;;;;;6.42;79.63;97663.25;4965368;28;20034;-49
2022/03/31 00:40:31;;;;;;;51.35;22.42;;;;;;;6.40;79.62;97660.03;4969474;28;20065;-51
2022/03/31 00:42:57;;;;;;;60.85;23.13;;;;;;;6.35;78.89;97661.84;4970419;28;20097;-51
2022/03/31 00:45:23;;;;;;;51.83;22.23;;;;;;;6.33;79.91;97661.31;4969748;28;20049;-50
2022/03/31 00:47:49;;;;;;;49.97;23.35;;;;;;;6.32;79.46;97651.72;4947596;28;20533;-52
2022/03/31 00:50:15;;;;;;;51.35;22.05;;;;;;;6.34;79.92;97655.75;4967561;28;20114;-53
2022/03/31 00:52:41;;;;;;;41.80;20.02;;;;;;;6.42;81.32;97651.81;4967999;28;20455;-52
2022/03/31 00:55:09;;;;;;;46.53;21.63;;;;;;;6.38;80.23;97648.03;4959833;28;20026;-53
2022/03/31 00:57:34;;;;;;;56.10;23.45;;;;;;;6.35;80.41;97644.03;4959372;28;20560;-52
2022/03/31 00:59:59;;;;;;;46.53;20.23;;;;;;;6.31;79.35;97639.47;4963410;28;20043;-50
2022/03/31 01:02:30;;;;;;;49.70;21.30;;;;;;;6.29;79.16;97641.56;4964052;28;20038;-50
2022/03/31 01:04:55;;;;;;;43.72;20.23;;;;;;;6.23;77.50;97636.19;4957017;28;20035;-51
2022/03/31 01:07:21;;;;;;;45.00;20.13;;;;;;;6.23;77.87;97638.06;4963760;28;20038;-51
2022/03/31 01:09:46;;;;;;;43.25;19.88;;;;;;;6.20;77.42;97633.25;4969288;28;20401;-50
2022/03/31 01:12:12;;;;;;;42.00;18.90;;;;;;;6.17;76.94;97634.56;4961295;28;20085;-50
2022/03/31 01:14:37;;;;;;;46.75;20.83;;;;;;;6.14;77.13;97635.09;4964108;28;20039;-50
2022/03/31 01:17:03;;;;;;;42.55;20.15;;;;;;;6.09;77.35;97629.72;4968691;28;20085;-50
2022/03/31 01:19:28;;;;;;;45.80;19.30;;;;;;;6.05;77.38;97633.91;4965836;28;20397;-50
2022/03/31 01:21:54;;;;;;;49.45;21.15;;;;;;;6.04;76.74;97632.28;4968843;28;20047;-52
2022/03/31 01:24:19;;;;;;;40.63;18.30;;;;;;;5.99;76.70;97629.59;4953932;28;20042;-54
2022/03/31 01:26:45;;;;;;;44.47;19.35;;;;;;;5.95;76.27;97625.84;4963660;28;20523;-51
2022/03/31 01:29:11;;;;;;;44.22;19.33;;;;;;;5.92;75.97;97631.66;4969172;28;20524;-52
2022/03/31 01:31:38;;;;;;;42.40;18.80;;;;;;;5.89;75.37;97630.28;4968272;28;20419;-52
2022/03/31 01:34:07;;;;;;;41.70;17.77;;;;;;;5.86;74.92;97624.66;4964481;28;20031;-53
2022/03/31 01:36:33;;;;;;;46.05;19.08;;;;;;;5.81;74.61;97615.56;4967815;28;20549;-52
2022/03/31 01:38:58;;;;;;;42.00;17.45;;;;;;;5.79;74.40;97617.69;4962122;28;20118;-53
2022/03/31 01:41:23;;;;;;;37.80;17.65;;;;;;;5.76;74.89;97609.41;4964363;28;20023;-51
2022/03/31 01:43:49;;;;;;;36.75;17.42;;;;;;;5.74;74.59;97609.66;4969903;28;20026;-53
2022/03/31 01:46:15;;;;;;;43.00;18.15;;;;;;;5.70;75.17;97605.09;4965678;28;20022;-52
2022/03/31 01:48:40;;;;;;;38.33;18.58;;;;;;;5.70;75.33;97597.91;4969034;28;20764;-51
2022/03/31 01:51:05;;;;;;;37.45;18.23;;;;;;;5.69;74.79;97601.66;4972050;28;20355;-51
2022/03/31 01:53:32;;;;;;;35.30;17.05;;;;;;;5.70;74.81;97597.91;4955302;28;20027;-50
2022/03/31 01:55:57;;;;;;;39.88;17.75;;;;;;;5.68;74.88;97596.56;4961129;28;20027;-53
2022/03/31 01:58:23;;;;;;;38.05;18.60;;;;;;;5.65;75.17;97586.44;4961259;28;20386;-51
2022/03/31 02:00:50;;;;;;;48.38;16.63;;;;;;;5.61;75.44;97586.13;4966709;28;20027;-51
2022/03/31 02:03:16;;;;;;;40.10;18.42;;;;;;;5.59;74.61;97585.56;4964595;28;20042;-54
2022/03/31 02:05:42;;;;;;;34.25;17.13;;;;;;;5.57;75.71;97579.72;4964024;28;20027;-54
2022/03/31 02:08:07;;;;;;;39.20;17.70;;;;;;;5.55;75.58;97577.31;4957933;28;20035;-52
2022/03/31 02:10:32;;;;;;;37.65;17.90;;;;;;;5.50;75.48;97568.47;4960952;28;20517;-54
2022/03/31 02:12:58;;;;;;;38.72;17.23;;;;;;;5.44;75.77;97562.28;4965864;28;20083;-53
2022/03/31 02:15:23;;;;;;;37.45;15.75;;;;;;;5.39;75.58;97560.41;4967386;28;20457;-54
2022/03/31 02:17:49;;;;;;;42.83;16.48;;;;;;;5.40;75.92;97564.66;4966768;28;20026;-53
2022/03/31 02:20:14;;;;;;;41.92;16.75;;;;;;;5.36;75.39;97565.41;4965505;28;20029;-53
2022/03/31 02:22:40;;;;;;;38.80;18.25;;;;;;;5.32;75.38;97567.75;4962289;28;20102;-53
2022/03/31 02:25:08;;;;;;;40.67;16.75;;;;;;;5.28;75.32;97574.63;4962054;28;20453;-53
2022/03/31 02:27:35;;;;;;;41.08;16.25;;;;;;;5.39;76.16;97581.66;4960104;28;20030;-50
2022/03/31 02:30:01;;;;;;;38.80;16.65;;;;;;;5.32;75.25;97575.72;4953941;28;20024;-50
2022/03/31 02:32:27;;;;;;;37.85;17.00;;;;;;;5.32;76.14;97573.06;4960655;28;20367;-51
2022/03/31 02:35:06;;;;;;;34.67;16.02;;;;;;;5.26;75.31;97571.41;4942372;29;20473;-53
2022/03/31 02:37:32;;;;;;;40.75;16.63;;;;;;;5.24;75.70;97568.22;4962802;28;20456;-52
2022/03/31 02:39:57;;;;;;;38.28;17.63;;;;;;;5.24;76.14;97562.91;4958242;28;20039;-51
2022/03/31 02:42:23;;;;;;;38.58;17.15;;;;;;;5.35;77.24;97561.16;4962419;28;20038;-53
2022/03/31 02:44:48;;;;;;;42.28;17.52;;;;;;;5.24;76.23;97562.06;4961693;28;20054;-54
2022/03/31 02:47:14;;;;;;;42.28;18.50;;;;;;;5.21;76.42;97558.06;4959359;28;20461;-53
2022/03/31 02:49:40;;;;;;;41.53;18.13;;;;;;;5.21;76.34;97552.75;4961910;28;20031;-50
2022/03/31 02:52:06;;;;;;;46.17;19.10;;;;;;;5.14;76.36;97557.44;4965679;28;20362;-50
2022/03/31 02:57:15;;;;;;;43.53;18.75;;;;;;;5.01;76.85;97544.56;4960850;28;20086;-50
2022/03/31 02:59:41;;;;;;;38.38;17.88;;;;;;;4.99;77.05;97552.75;4967764;28;20030;-53
2022/03/31 03:02:06;;;;;;;41.92;17.08;;;;;;;4.96;76.48;97545.28;4967142;28;20041;-50
2022/03/31 03:04:32;;;;;;;37.75;17.90;;;;;;;4.97;77.10;97539.75;4963545;28;20062;-50
2022/03/31 03:06:58;;;;;;;43.15;19.40;;;;;;;5.00;76.51;97540.31;4965952;28;20409;-52
2022/03/31 03:09:23;;;;;;;42.90;18.58;;;;;;;4.96;76.56;97538.13;4959614;28;20047;-52
2022/03/31 03:11:49;;;;;;;40.20;17.75;;;;;;;4.89;76.26;97534.88;4962914;28;20026;-51
2022/03/31 03:14:14;;;;;;;41.08;18.48;;;;;;;4.86;76.77;97537.19;4969778;28;20425;-52
2022/03/31 03:16:43;;;;;;;45.35;18.95;;;;;;;4.90;77.03;97536.47;4966271;28;20067;-50
2022/03/31 03:19:09;;;;;;;55.67;20.80;;;;;;;4.75;77.51;97520.34;4966867;28;20040;-51
2022/03/31 03:21:34;;;;;;;53.95;21.90;;;;;;;4.77;77.49;97536.84;4965149;28;20073;-53
2022/03/31 03:24:01;;;;;;;61.60;23.75;;;;;;;4.80;78.23;97536.34;4962353;28;20051;-54
2022/03/31 03:26:27;;;;;;;63.03;24.48;;;;;;;4.76;77.73;97532.56;4956361;28;20038;-53
2022/03/31 03:28:53;;;;;;;52.22;22.58;;;;;;;4.79;77.64;97540.03;4967684;28;20485;-53
2022/03/31 03:31:18;;;;;;;50.20;21.48;;;;;;;4.83;77.54;97546.47;4966461;28;20030;-52
2022/03/31 03:33:43;;;;;;;46.60;19.60;;;;;;;4.91;78.05;97546.03;4966945;28;20024;-52
2022/03/31 03:36:11;;;;;;;45.15;20.75;;;;;;;4.91;77.84;97535.41;4964050;28;20039;-51
2022/03/31 03:38:37;;;;;;;53.00;19.88;;;;;;;4.90;78.28;97544.44;4969465;28;20262;-53
2022/03/31 03:41:02;;;;;;;47.50;20.42;;;;;;;4.82;77.91;97531.59;4970746;28;20047;-51
2022/03/31 03:43:28;;;;;;;54.28;21.80;;;;;;;4.75;78.20;97531.75;4963776;28;20031;-52
2022/03/31 03:45:54;;;;;;;44.53;20.08;;;;;;;4.73;78.61;97533.06;4968727;28;20104;-50
2022/03/31 03:48:21;;;;;;;43.53;19.48;;;;;;;4.84;78.33;97534.81;4970416;28;20034;-54
2022/03/31 03:50:47;;;;;;;57.38;21.90;;;;;;;4.83;79.11;97527.88;4970141;28;20034;-53
2022/03/31 03:53:12;;;;;;;42.08;19.10;;;;;;;4.92;79.00;97530.91;4970912;28;20190;-51
2022/03/31 03:55:37;;;;;;;50.35;21.25;;;;;;;4.71;79.58;97529.84;4966415;28;20042;-51
2022/03/31 03:58:03;;;;;;;48.40;18.90;;;;;;;4.62;80.61;97528.66;4965182;28;20046;-53
2022/03/31 04:00:29;;;;;;;53.75;20.63;;;;;;;4.59;81.56;97529.94;4962223;28;20031;-51
2022/03/31 04:02:54;;;;;;;37.40;16.48;;;;;;;4.53;80.68;97531.72;4962362;28;20034;-52
2022/03/31 04:05:20;;;;;;;46.65;20.63;;;;;;;4.48;81.25;97529.00;4961915;28;20211;-50
2022/03/31 04:07:46;;;;;;;50.38;21.65;;;;;;;4.46;81.54;97525.78;4965739;28;20078;-51
2022/03/31 04:10:11;;;;;;;48.15;20.30;;;;;;;4.44;81.84;97527.91;4964276;28;20035;-50
2022/03/31 04:12:38;;;;;;;48.13;21.83;;;;;;;4.51;82.14;97517.91;4963486;28;20038;-50
2022/03/31 04:15:04;;;;;;;52.60;22.40;;;;;;;4.53;81.96;97518.47;4983658;28;20027;-50
2022/03/31 04:17:30;;;;;;;60.65;22.77;;;;;;;4.49;82.64;97521.84;4970174;28;20054;-50
2022/03/31 04:19:56;;;;;;;62.53;25.33;;;;;;;4.45;82.87;97513.59;4963625;28;20077;-50
2022/03/31 04:22:21;;;;;;;51.17;22.65;;;;;;;4.46;83.12;97520.50;4961706;28;20043;-51
2022/03/31 04:24:47;;;;;;;49.50;20.08;;;;;;;4.39;83.47;97522.50;4970114;28;20380;-52
2022/03/31 04:27:12;;;;;;;49.72;22.13;;;;;;;4.40;84.00;97526.78;4969475;28;20039;-51
2022/03/31 04:29:38;;;;;;;51.42;20.58;;;;;;;4.49;83.16;97521.84;4969998;28;20039;-50
2022/03/31 04:32:03;;;;;;;54.33;23.05;;;;;;;4.41;83.01;97523.06;4963742;28;20485;-53
2022/03/31 04:34:29;;;;;;;49.50;20.40;;;;;;;4.36;83.23;97525.66;4964658;28;20069;-51
2022/03/31 04:36:54;;;;;;;50.58;20.95;;;;;;;4.35;83.24;97523.25;4956850;28;20082;-53
2022/03/31 04:39:20;;;;;;;42.75;19.73;;;;;;;4.40;84.06;97518.03;4963271;28;20120;-50
2022/03/31 04:41:45;;;;;;;43.88;21.38;;;;;;;4.32;83.74;97524.56;4966331;28;20035;-50
2022/03/31 04:44:11;;;;;;;51.38;22.48;;;;;;;4.29;83.80;97514.41;4941082;28;20039;-52
2022/03/31 04:46:37;;;;;;;47.67;19.73;;;;;;;4.27;83.60;97522.63;4960029;28;20077;-53
2022/03/31 04:49:02;;;;;;;50.22;21.70;;;;;;;4.24;83.86;97517.00;4969392;28;20034;-50
2022/03/31 04:51:28;;;;;;;47.85;20.45;;;;;;;4.20;83.63;97523.84;4966804;28;20367;-50
2022/03/31 04:53:54;;;;;;;54.47;19.55;;;;;;;4.17;83.37;97529.63;4972529;28;20759;-50
2022/03/31 04:56:20;;;;;;;56.65;21.92;;;;;;;4.14;82.79;97516.84;4969197;28;20113;-52
2022/03/31 04:58:45;;;;;;;53.50;21.20;;;;;;;4.08;82.70;97514.13;4967417;28;20034;-52
2022/03/31 05:01:11;;;;;;;49.10;19.77;;;;;;;4.13;82.68;97515.25;4963021;28;20035;-52
2022/03/31 05:03:39;;;;;;;55.20;21.80;;;;;;;4.05;82.20;97522.56;4964709;28;20113;-51
2022/03/31 05:06:05;;;;;;;49.83;19.90;;;;;;;3.97;82.35;97512.38;4967558;28;20034;-50
2022/03/31 05:08:31;;;;;;;52.47;21.02;;;;;;;4.06;82.18;97513.56;4968869;28;20058;-51
2022/03/31 05:10:56;;;;;;;52.72;20.33;;;;;;;3.98;81.84;97511.31;4965101;28;20093;-52
2022/03/31 05:13:22;;;;;;;44.75;18.85;;;;;;;3.91;82.30;97505.38;4959018;28;20028;-51
2022/03/31 05:15:47;;;;;;;50.28;20.38;;;;;;;3.97;82.46;97501.78;4959817;28;20026;-53
2022/03/31 05:18:13;;;;;;;51.45;18.80;;;;;;;3.94;82.43;97507.53;4960796;28;20064;-53
2022/03/31 05:20:39;;;;;;;46.78;17.40;;;;;;;3.86;82.60;97500.00;4964788;28;20100;-53
2022/03/31 05:23:04;;;;;;;52.38;21.30;;;;;;;3.84;83.22;97497.59;4957447;28;20031;-52
2022/03/31 05:25:30;;;;;;;45.75;17.83;;;;;;;3.87;83.32;97496.31;4959105;28;20105;-49
2022/03/31 05:27:58;;;;;;;53.92;19.65;;;;;;;3.89;83.56;97497.69;4960335;28;20043;-52
2022/03/31 05:30:24;;;;;;;47.65;20.27;;;;;;;3.91;83.61;97497.41;4965090;28;20093;-52
2022/03/31 05:32:51;;;;;;;49.53;20.77;;;;;;;3.95;83.65;97497.75;4968638;28;20034;-50
2022/03/31 05:35:18;;;;;;;56.10;20.85;;;;;;;3.91;83.80;97497.41;4962619;28;20069;-50
2022/03/31 05:37:46;;;;;;;52.70;20.08;;;;;;;3.82;82.88;97504.16;4964166;28;20552;-51
2022/03/31 05:40:11;;;;;;;55.97;21.55;;;;;;;3.85;83.30;97501.03;4965242;28;20491;-50
2022/03/31 05:42:37;;;;;;;47.67;17.98;;;;;;;3.81;82.53;97497.25;4965361;28;20026;-52
2022/03/31 05:45:03;;;;;;;61.20;19.88;;;;;;;3.86;82.60;97502.63;4967250;28;20039;-51
2022/03/31 05:47:29;;;;;;;50.63;20.58;;;;;;;3.95;82.54;97497.75;4966428;28;20115;-51
2022/03/31 05:49:54;;;;;;;57.33;22.02;;;;;;;3.95;82.79;97497.75;4963765;28;20027;-53
2022/03/31 05:52:20;;;;;;;48.78;19.50;;;;;;;3.96;82.40;97505.44;4961143;28;20046;-53
2022/03/31 05:54:46;;;;;;;46.95;18.30;;;;;;;3.84;81.56;97500.25;4959506;28;20038;-52
2022/03/31 05:57:11;;;;;;;50.63;19.13;;;;;;;3.79;82.02;97509.94;4967696;28;20046;-53
2022/03/31 05:59:37;;;;;;;42.17;17.05;;;;;;;3.82;81.48;97512.09;4965087;28;20041;-52
2022/03/31 06:02:02;;;;;;;43.97;18.83;;;;;;;3.81;82.23;97510.50;4965446;28;20429;-54
2022/03/31 06:04:28;;;;;;;42.45;17.92;;;;;;;3.84;81.62;97507.38;4963539;28;20475;-51
2022/03/31 06:06:53;;;;;;;50.45;19.45;;;;;;;3.96;82.10;97515.25;4963024;28;20089;-51
2022/03/31 06:09:19;;;;;;;53.63;20.90;;;;;;;3.94;81.79;97506.72;4966373;28;20035;-50
2022/03/31 06:11:44;;;;;;;60.90;19.75;;;;;;;3.93;81.83;97513.88;4963604;28;20121;-52
2022/03/31 06:14:10;;;;;;;53.70;20.83;;;;;;;4.04;81.61;97520.16;4968080;28;20571;-52
2022/03/31 06:16:35;;;;;;;58.05;19.05;;;;;;;3.98;81.55;97513.97;4967355;28;20043;-51
2022/03/31 06:19:01;;;;;;;47.22;19.73;;;;;;;3.99;81.33;97514.75;4965307;28;20607;-50
2022/03/31 06:21:26;;;;;;;62.15;21.13;;;;;;;3.99;81.70;97523.50;4958552;28;20133;-50
2022/03/31 06:23:52;;;;;;;61.08;22.98;;;;;;;3.90;81.41;97517.03;4967741;28;20061;-52
2022/03/31 06:26:17;;;;;;;57.17;21.10;;;;;;;3.88;81.40;97524.41;4964946;28;20102;-50
2022/03/31 06:28:43;;;;;;;71.47;24.45;;;;;;;3.89;82.29;97515.41;4957681;28;20038;-50
2022/03/31 06:31:09;;;;;;;56.75;18.17;;;;;;;3.89;81.90;97510.09;4958637;28;20047;-53
2022/03/31 06:33:34;;;;;;;53.38;18.90;;;;;;;3.95;81.76;97519.75;4959774;28;20085;-51
2022/03/31 06:36:00;;;;;;;49.33;19.65;;;;;;;3.91;81.62;97517.81;4960648;28;20055;-53
2022/03/31 06:38:25;;;;;;;59.80;20.92;;;;;;;3.85;81.92;97511.66;4961589;28;20065;-53
2022/03/31 06:41:06;;;;;;;50.28;21.00;;;;;;;3.86;81.68;97514.03;4967222;28;20046;-53
2022/03/31 06:43:32;;;;;;;;;;;;;;;3.92;81.13;97514.94;4952984;28;20070;-50
2022/03/31 06:45:57;;;;;;;53.05;19.23;;;;;;;3.84;81.84;97517.97;4960840;28;20377;-51
2022/03/31 06:48:23;;;;;;;60.50;20.75;;;;;;;3.97;81.82;97507.06;4961494;28;20034;-51
2022/03/31 06:50:48;;;;;;;47.03;18.58;;;;;;;3.90;81.50;97517.03;4967126;28;20168;-51
2022/03/31 06:53:14;;;;;;;51.45;20.42;;;;;;;3.81;81.59;97513.16;4967204;28;20035;-52
2022/03/31 06:55:39;;;;;;;53.50;21.40;;;;;;;3.84;82.11;97517.97;4962618;28;20386;-51
2022/03/31 06:58:04;;;;;;;60.53;22.95;;;;;;;3.87;82.00;97523.63;4952722;28;20397;-52
2022/03/31 07:00:30;;;;;;;64.53;21.77;;;;;;;3.96;82.11;97521.34;4960933;28;20059;-53
2022/03/31 07:02:55;;;;;;;56.38;19.90;;;;;;;3.95;81.19;97519.75;4967668;28;20061;-51
2022/03/31 07:05:21;;;;;;;40.80;17.48;;;;;;;3.95;81.43;97519.75;4967749;28;20568;-50
2022/03/31 07:07:47;;;;;;;60.92;20.27;;;;;;;3.92;81.83;97509.66;4961796;28;20058;-51
2022/03/31 07:10:13;;;;;;;50.55;19.85;;;;;;;3.88;81.37;97514.59;4963632;28;20044;-51
2022/03/31 07:12:41;;;;;;;57.67;23.23;;;;;;;3.90;81.78;97509.06;4958864;28;20159;-50
2022/03/31 07:15:08;;;;;;;55.53;19.40;;;;;;;3.87;81.42;97507.72;4966568;28;20035;-51
2022/03/31 07:17:34;;;;;;;53.35;21.50;;;;;;;3.96;81.58;97504.66;4966056;28;20040;-52
2022/03/31 07:19:59;;;;;;;51.70;21.77;;;;;;;4.01;81.54;97502.88;4962301;28;20393;-53
2022/03/31 07:22:25;;;;;;;56.17;22.35;;;;;;;4.01;81.43;97508.16;4960298;28;20533;-52
2022/03/31 07:24:50;;;;;;;53.25;22.63;;;;;;;4.06;81.25;97504.81;4962742;28;20046;-51
2022/03/31 07:27:15;;;;;;;56.92;23.90;;;;;;;4.01;80.87;97504.72;4933054;28;20056;-50
2022/03/31 07:29:41;;;;;;;51.13;19.58;;;;;;;4.10;80.91;97506.72;4935475;29;20039;-50
2022/03/31 07:32:07;;;;;;;51.03;19.05;;;;;;;4.12;80.99;97514.44;4940139;28;20494;-51
2022/03/31 07:34:33;;;;;;;47.47;19.05;;;;;;;4.08;81.32;97515.97;4930368;29;20043;-50
2022/03/31 07:37:00;;;;;;;62.20;21.00;;;;;;;4.11;80.80;97518.94;4930557;28;20055;-51
2022/03/31 07:39:26;;;;;;;41.42;16.40;;;;;;;4.07;80.45;97523.13;4935906;28;20027;-50
2022/03/31 07:41:51;;;;;;;59.10;21.40;;;;;;;4.16;80.36;97520.06;4935824;28;20434;-50
2022/03/31 07:44:16;;;;;;;55.13;21.30;;;;;;;4.18;80.31;97523.28;4932104;29;20028;-53
2022/03/31 07:46:42;;;;;;;55.40;21.23;;;;;;;4.19;80.52;97514.28;4932193;28;20040;-50
2022/03/31 07:49:08;;;;;;;62.72;20.65;;;;;;;4.22;79.57;97514.59;4934040;28;20046;-50
2022/03/31 07:51:33;;;;;;;54.72;20.27;;;;;;;4.10;79.54;97513.88;4931237;28;20047;-54
2022/03/31 07:53:59;;;;;;;67.13;24.35;;;;;;;4.29;79.18;97514.41;4931746;28;20450;-52
2022/03/31 07:56:24;;;;;;;61.78;23.70;;;;;;;4.21;79.24;97517.47;4929980;28;20311;-50
2022/03/31 07:58:50;;;;;;;57.42;22.38;;;;;;;4.33;78.99;97518.19;4934240;29;20031;-52
2022/03/31 08:01:15;;;;;;;61.63;22.63;;;;;;;4.52;78.92;97516.88;4934057;28;20043;-51
2022/03/31 08:03:41;;;;;;;55.95;22.60;;;;;;;4.47;77.76;97516.81;4934369;28;20039;-52
2022/03/31 08:06:08;;;;;;;56.40;23.58;;;;;;;4.38;78.50;97523.56;4946574;28;20048;-53
2022/03/31 08:08:34;;;;;;;47.45;19.60;;;;;;;4.23;78.42;97531.31;4970160;28;20145;-50
2022/03/31 08:10:59;;;;;;;75.90;24.23;;;;;;;4.28;79.27;97534.03;4933383;28;20414;-50
2022/03/31 08:13:26;;;;;;;61.42;21.35;;;;;;;4.51;78.70;97528.53;4933979;29;20039;-52
2022/03/31 08:15:53;;;;;;;50.95;21.25;;;;;;;4.56;77.41;97532.28;4944483;28;20039;-51
2022/03/31 08:18:19;;;;;;;55.13;20.83;;;;;;;4.29;77.39;97535.63;4946772;29;20035;-49
2022/03/31 08:20:45;;;;;;;59.05;20.65;;;;;;;4.47;77.02;97537.25;4934918;28;20075;-50
2022/03/31 08:23:10;;;;;;;48.38;21.40;;;;;;;4.49;77.43;97530.63;4933225;28;20864;-53
2022/03/31 08:25:35;;;;;;;54.20;21.55;;;;;;;4.38;77.51;97530.72;4934163;28;20047;-49
2022/03/31 08:28:01;;;;;;;56.42;21.15;;;;;;;4.49;77.76;97540.41;4934221;29;20598;-50
2022/03/31 08:30:28;;;;;;;48.63;18.60;;;;;;;4.42;78.54;97537.97;4932083;28;20040;-49
2022/03/31 08:32:53;;;;;;;50.58;19.25;;;;;;;4.54;79.36;97538.66;4934009;28;20483;-50
2022/03/31 08:35:19;;;;;;;67.32;23.48;;;;;;;4.60;79.16;97533.44;4964131;28;20070;-50
2022/03/31 08:37:44;;;;;;;58.10;22.00;;;;;;;4.64;79.91;97529.22;4936200;28;20410;-50
2022/03/31 08:40:13;;;;;;;59.03;22.15;;;;;;;4.56;79.59;97532.28;4937814;28;20039;-50
2022/03/31 08:42:39;;;;;;;53.28;21.10;;;;;;;4.72;79.53;97534.91;4938333;28;20046;-53
2022/03/31 08:45:06;;;;;;;48.42;18.42;;;;;;;4.74;78.44;97538.13;4935956;28;20050;-50
2022/03/31 08:47:33;;;;;;;59.10;20.25;;;;;;;4.45;78.44;97532.16;4944892;28;20031;-52
2022/03/31 08:49:59;;;;;;;54.88;21.85;;;;;;;4.77;79.68;97528.88;4944771;28;20039;-52
2022/03/31 08:52:24;;;;;;;55.85;21.50;;;;;;;4.70;79.82;97538.88;4964841;28;20042;-51
2022/03/31 08:54:50;;;;;;;52.58;21.73;;;;;;;4.94;81.05;97537.59;4959576;28;20540;-51
2022/03/31 08:57:16;;;;;;;57.30;19.90;;;;;;;4.91;78.91;97545.22;4948543;28;20043;-52
2022/03/31 08:59:41;;;;;;;52.10;20.70;;;;;;;4.66;78.09;97535.09;4945648;28;20047;-50
2022/03/31 09:02:07;;;;;;;51.35;20.20;;;;;;;4.92;78.57;97539.69;4943084;28;20544;-52
2022/03/31 09:04:33;;;;;;;53.35;20.85;;;;;;;4.89;77.70;97537.53;4941066;29;20035;-53
2022/03/31 09:07:06;;;;;;;48.45;20.10;;;;;;;5.09;78.07;97541.44;4958365;28;20047;-50
2022/03/31 09:09:32;;;;;;;52.85;21.00;;;;;;;4.84;77.44;97542.78;4955247;28;20113;-50
2022/03/31 09:11:57;;;;;;;40.53;17.92;;;;;;;4.75;76.47;97538.94;4974266;28;20058;-52
2022/03/31 09:14:30;;;;;;;42.55;16.63;;;;;;;4.73;77.86;97546.31;4959846;28;20039;-51
2022/03/31 09:16:56;;;;;;;64.95;22.52;;;;;;;4.93;78.55;97537.81;4941611;28;20036;-51
2022/03/31 09:19:21;;;;;;;53.90;20.67;;;;;;;5.35;77.62;97542.56;4931638;29;20437;-52
2022/03/31 09:21:54;;;;;;;58.63;20.42;;;;;;;5.21;78.13;97533.34;4928678;28;20478;-53
2022/03/31 09:24:20;;;;;;;54.42;20.45;;;;;;;5.09;79.25;97534.31;4938727;29;20031;-51
2022/03/31 09:26:46;;;;;;;57.90;20.80;;;;;;;5.45;78.99;97531.22;4931851;28;20051;-51
2022/03/31 09:29:12;;;;;;;49.88;20.10;;;;;;;5.48;76.88;97522.75;4930848;28;20626;-52
2022/03/31 09:31:38;;;;;;;48.47;19.95;;;;;;;5.46;76.33;97538.13;4935529;28;20458;-52
2022/03/31 09:34:03;;;;;;;54.00;19.83;;;;;;;5.66;75.68;97542.84;4938930;28;20487;-53
2022/03/31 09:36:29;;;;;;;56.75;22.02;;;;;;;5.47;76.08;97535.25;4939389;28;20491;-49
2022/03/31 09:39:03;;;;;;;47.15;18.75;;;;;;;5.70;76.17;97547.41;4933469;29;20561;-54
2022/03/31 09:41:30;;;;;;;58.63;23.38;;;;;;;5.71;75.98;97538.38;4932880;28;20046;-55
2022/03/31 09:43:58;;;;;;;57.15;23.40;;;;;;;5.79;77.06;97537.94;4936299;28;20031;-50
2022/03/31 09:46:33;;;;;;;55.65;21.33;;;;;;;6.02;76.85;97541.34;4960920;28;20138;-52
2022/03/31 09:49:09;;;;;;;53.50;22.25;;;;;;;5.93;74.97;97532.97;4935934;28;20039;-53
2022/03/31 09:51:34;;;;;;;58.55;23.88;;;;;;;5.69;75.47;97548.47;4938646;28;20043;-52
2022/03/31 09:53:59;;;;;;;54.95;22.48;;;;;;;5.09;75.21;97536.97;4934047;28;20035;-52
2022/03/31 09:56:25;;;;;;;71.10;24.50;;;;;;;5.66;75.70;97533.00;4963556;28;20043;-49
2022/03/31 09:58:51;;;;;;;45.67;17.23;;;;;;;6.01;75.15;97529.09;4944109;28;20229;-50
2022/03/31 10:01:17;;;;;;;58.33;20.23;;;;;;;5.75;73.89;97542.16;4924272;28;20204;-50
2022/03/31 10:03:43;;;;;;;58.00;23.67;;;;;;;5.61;75.47;97533.75;4932686;28;20027;-52
2022/03/31 10:06:08;;;;;;;67.35;26.73;;;;;;;6.01;76.75;97534.41;4935853;28;20051;-54
2022/03/31 10:08:37;;;;;;;55.55;23.08;;;;;;;5.80;73.69;97539.53;4939334;28;20359;-53
2022/03/31 10:11:03;;;;;;;67.88;22.90;;;;;;;5.52;73.91;97537.16;4932038;28;20376;-53
2022/03/31 10:13:32;;;;;;;52.15;21.48;;;;;;;5.35;74.19;97538.03;4930684;29;20454;-52
2022/03/31 10:16:04;;;;;;;53.85;21.75;;;;;;;5.22;74.19;97535.78;4914795;28;20561;-52
2022/03/31 10:18:30;;;;;;;51.55;21.35;;;;;;;5.37;74.29;97535.94;4971746;28;20025;-50
2022/03/31 10:20:57;;;;;;;58.92;23.13;;;;;;;5.31;74.63;97531.59;4962867;28;20413;-54
2022/03/31 10:26:06;;;;;;;53.65;21.67;;;;;;;5.35;73.66;97511.47;4939973;28;20074;-50
2022/03/31 10:28:32;;;;;;;61.42;21.73;;;;;;;5.29;74.40;97517.78;4931742;29;20031;-50
2022/03/31 10:31:01;;;;;;;47.22;17.65;;;;;;;5.19;74.25;97525.63;4935830;28;20055;-53
2022/03/31 10:33:33;;;;;;;48.80;20.17;;;;;;;5.46;74.26;97514.22;4932672;29;20031;-50
2022/03/31 10:36:16;;;;;;;52.25;21.52;;;;;;;5.81;75.59;97503.91;4930484;28;20051;-51
2022/03/31 10:38:56;;;;;;;56.53;22.67;;;;;;;5.91;75.30;97507.72;4933352;28;20035;-50
2022/03/31 10:41:35;;;;;;;58.63;22.67;;;;;;;5.77;74.58;97508.13;4932283;28;20044;-50
2022/03/31 10:44:12;;;;;;;50.30;22.30;;;;;;;5.64;73.77;97513.84;4931694;29;20063;-50
2022/03/31 10:46:39;;;;;;;43.40;19.60;;;;;;;6.04;73.86;97512.63;4932609;28;20077;-52
2022/03/31 10:49:09;;;;;;;47.25;20.40;;;;;;;6.02;72.45;97509.44;4937755;28;20040;-52
2022/03/31 10:51:36;;;;;;;53.25;22.30;;;;;;;6.15;72.57;97500.22;4932279;28;20040;-50
2022/03/31 10:54:02;;;;;;;50.80;21.77;;;;;;;6.48;72.32;97491.09;4930749;29;20182;-53
2022/03/31 10:56:28;;;;;;;51.53;22.02;;;;;;;6.40;71.59;97494.25;4940873;28;20032;-51
2022/03/31 10:59:01;;;;;;;49.72;21.60;;;;;;;6.37;72.33;97487.56;4934320;28;20039;-52
2022/03/31 11:01:34;;;;;;;54.85;21.90;;;;;;;6.28;72.07;97496.28;4937702;28;20115;-54
2022/03/31 11:04:01;;;;;;;50.80;23.80;;;;;;;6.35;70.87;97487.03;4936701;29;20560;-49
2022/03/31 11:06:26;;;;;;;54.38;22.75;;;;;;;6.48;73.13;97485.75;4929539;28;20097;-50
2022/03/31 11:08:52;;;;;;;53.90;23.25;;;;;;;6.31;73.62;97490.47;4937242;29;20495;-50
2022/03/31 11:11:25;;;;;;;46.50;19.73;;;;;;;6.14;72.99;97483.44;4932622;28;20063;-53
2022/03/31 11:13:51;;;;;;;48.13;20.85;;;;;;;6.08;72.80;97486.31;4934671;29;20032;-53
2022/03/31 11:16:16;;;;;;;52.17;21.10;;;;;;;6.15;73.59;97478.94;4929767;28;20491;-49
2022/03/31 11:19:04;;;;;;;53.72;21.52;;;;;;;6.08;74.17;97487.13;4931557;29;20043;-55
2022/03/31 11:21:48;;;;;;;46.20;21.75;;;;;;;6.19;74.73;97472.84;4936195;28;20106;-51
2022/03/31 11:24:13;;;;;;;49.25;21.67;;;;;;;6.40;71.82;97480.94;4935916;29;20110;-53
2022/03/31 11:26:40;;;;;;;47.67;20.25;;;;;;;6.41;71.89;97478.00;4931704;28;20451;-53
2022/03/31 11:29:14;;;;;;;52.83;22.73;;;;;;;6.79;73.79;97480.56;4938698;28;20045;-53